This is the latest recevied weather packets stored in our database for station/object AE6EO. If no packets are shown the sender has not sent any weather packets the latest 10 day(s).
| Time | Temp. | Humidity | Pressure | Rain* | Wind** | Luminosity | Snow |
|---|---|---|---|---|---|---|---|
| 1777425316 | 21.11° C | 48% | 1018.6 hPa | 0 mm | - | - | - |
| 1777424716 | 21.11° C | 50% | 1018.7 hPa | 0 mm | - | - | - |
| 1777423516 | 21.11° C | 51% | 1018.7 hPa | 0 mm | - | - | - |
| 1777422915 | 21.11° C | 51% | 1018.6 hPa | 0 mm | - | - | - |
| 1777420536 | 21.67° C | 50% | 1018.6 hPa | 0 mm | - | - | - |
| 1777413336 | 21.67° C | 46% | 1019.3 hPa | 0 mm | - | - | - |
| 1777412137 | 21.67° C | 46% | 1019.5 hPa | 0 mm | - | - | - |
| 1777410317 | 20.56° C | 50% | 1019.9 hPa | 0 mm | - | - | - |
| 1777407915 | 20° C | 55% | 1020.3 hPa | 0 mm | - | - | - |
| 1777407336 | 19.44° C | 56% | 1020.4 hPa | 0 mm | - | - | - |
| 1777403716 | 18.33° C | 59% | 1021 hPa | 0 mm | - | - | - |
| 1777401316 | 17.78° C | 60% | 1021.3 hPa | 0 mm | - | - | - |
| 1777397716 | 16.67° C | 65% | 1021.5 hPa | 0 mm | - | - | - |
| 1777395318 | 16.11° C | 63% | 1021.4 hPa | 0 mm | - | - | - |
| 1777393517 | 15.56° C | 67% | 1021.3 hPa | 0 mm | - | - | - |
| 1777392317 | 15° C | 69% | 1021.3 hPa | 0 mm | - | - | - |
| 1777391115 | 14.44° C | 71% | 1021.4 hPa | 0 mm | - | - | - |
| 1777389319 | 12.78° C | 75% | 1021.1 hPa | 0 mm | - | - | - |
| 1777387516 | 11.11° C | 84% | 1020.9 hPa | 0 mm | - | - | - |
| 1777383335 | 7.22° C | 91% | 1020.5 hPa | 0 mm | - | - | - |
| 1777374317 | 8.33° C | 88% | 1019.7 hPa | 0 mm | - | - | - |
| 1777373117 | 8.33° C | 88% | 1019.7 hPa | 0 mm | - | - | - |
| 1777364116 | 8.89° C | 86% | 1020.6 hPa | 0 mm | - | - | - |
| 1777363515 | 9.44° C | 85% | 1020.6 hPa | 0 mm | - | - | - |
| 1777362917 | 9.44° C | 85% | 1020.6 hPa | 0 mm | - | - | - |
* Rain latest hour (hover to see other rain measurements)
** Current wind speed in m/s (hover to see current wind gust speed)